Time;durP1;ratioP1;P1;durP2;ratioP2;P2;SDS_P1;SDS_P2;PMS_P1;PMS_P2;Temp;Humidity;BMP_temperature;BMP_pressure;BME280_temperature;BME280_humidity;BME280_pressure;Samples;Min_cycle;Max_cycle;Signal;HPM_P1;HPM_P2
2023/06/24 00:01:24;;;;;;;5.53;4.90;;;;;;;22.73;45.36;98286.31;5076021;28;20929;-71
2023/06/24 00:03:52;;;;;;;7.53;5.00;;;;;;;22.70;45.38;98289.38;5088706;28;20515;-70
2023/06/24 00:06:22;;;;;;;7.10;5.20;;;;;;;22.65;45.46;98294.53;5094120;28;20181;-70
2023/06/24 00:08:50;;;;;;;6.60;4.80;;;;;;;22.62;45.68;98297.59;5088766;28;20452;-70
2023/06/24 00:11:16;;;;;;;5.10;4.60;;;;;;;22.54;45.58;98293.28;5089003;28;20426;-71
2023/06/24 00:13:42;;;;;;;5.33;4.83;;;;;;;22.50;46.00;98308.88;5069868;28;20444;-70
2023/06/24 00:16:08;;;;;;;5.73;5.10;;;;;;;22.44;45.96;98300.84;5088443;28;20181;-72
2023/06/24 00:18:34;;;;;;;5.60;4.70;;;;;;;22.39;46.28;98304.09;5089498;28;20416;-71
2023/06/24 00:21:01;;;;;;;4.63;4.23;;;;;;;22.36;46.25;98300.00;5094628;28;20178;-71
2023/06/24 00:23:27;;;;;;;5.27;4.73;;;;;;;22.32;46.28;98297.91;5066763;28;20526;-70
2023/06/24 00:25:54;;;;;;;7.03;5.80;;;;;;;22.25;46.50;98304.06;5090400;28;20420;-71
2023/06/24 00:28:19;;;;;;;5.40;4.90;;;;;;;22.31;46.71;98306.94;5087774;28;20459;-69
2023/06/24 00:30:46;;;;;;;7.00;5.20;;;;;;;22.27;46.49;98306.53;5067963;28;20472;-71
2023/06/24 00:33:13;;;;;;;5.17;4.77;;;;;;;22.24;46.48;98307.75;5088142;28;20205;-70
2023/06/24 00:35:39;;;;;;;5.70;5.10;;;;;;;22.22;46.47;98306.31;5087469;28;20495;-70
2023/06/24 00:38:04;;;;;;;5.40;4.87;;;;;;;22.14;46.60;98304.66;5089967;28;20427;-69
2023/06/24 00:40:29;;;;;;;8.83;5.07;;;;;;;22.15;46.98;98303.63;5084812;28;20174;-70
2023/06/24 00:42:55;;;;;;;5.40;4.43;;;;;;;22.16;46.92;98293.75;5099878;28;20741;-70
2023/06/24 00:45:22;;;;;;;7.40;5.20;;;;;;;22.14;47.01;98301.97;5070222;28;20193;-70
2023/06/24 00:47:48;;;;;;;5.43;4.93;;;;;;;22.12;46.99;98298.69;5070095;28;20188;-69
2023/06/24 00:50:15;;;;;;;6.00;5.40;;;;;;;22.11;46.83;98296.22;5087611;28;20455;-70
2023/06/24 00:52:42;;;;;;;6.60;4.60;;;;;;;22.10;46.93;98300.72;5088068;28;20205;-71
2023/06/24 00:55:12;;;;;;;5.33;4.83;;;;;;;22.12;47.21;98293.34;5096604;28;20467;-70
2023/06/24 00:57:39;;;;;;;5.00;4.50;;;;;;;22.10;46.91;98290.06;5093791;28;20431;-70
2023/06/24 01:00:10;;;;;;;6.37;5.30;;;;;;;22.00;47.08;98289.63;5076429;28;20976;-70
2023/06/24 01:02:37;;;;;;;6.03;5.37;;;;;;;21.94;47.25;98292.03;5076337;28;20847;-70
2023/06/24 01:05:07;;;;;;;5.80;5.20;;;;;;;21.99;47.45;98299.44;5087133;28;20431;-72
2023/06/24 01:07:35;;;;;;;5.40;4.90;;;;;;;22.05;47.11;98293.31;5037195;28;20174;-69
2023/06/24 01:10:01;;;;;;;5.77;5.17;;;;;;;22.06;47.02;98294.13;5056204;28;20497;-70
2023/06/24 01:12:26;;;;;;;5.70;4.83;;;;;;;22.00;46.84;98302.94;5053251;28;20468;-70
2023/06/24 01:14:51;;;;;;;4.87;4.47;;;;;;;21.89;47.29;98307.84;5092025;28;20190;-70
2023/06/24 01:17:24;;;;;;;5.40;4.83;;;;;;;21.83;47.42;98303.28;5089972;28;20178;-72
2023/06/24 01:20:07;;;;;;;5.27;4.77;;;;;;;21.75;47.38;98308.78;5070569;28;20201;-69
2023/06/24 01:22:41;;;;;;;5.20;4.70;;;;;;;21.65;48.03;98293.16;5092147;28;20964;-68
2023/06/24 01:25:44;;;;;;;6.73;4.77;;;;;;;21.65;47.74;98295.00;5088056;28;20423;-69
2023/06/24 01:28:41;;;;;;;5.53;4.77;;;;;;;21.69;47.99;98298.91;5069960;28;20411;-73
2023/06/24 01:31:32;;;;;;;6.10;5.47;;;;;;;21.63;48.00;98300.50;5078308;28;20833;-68
2023/06/24 01:34:08;;;;;;;8.33;5.03;;;;;;;21.66;48.08;98304.66;5086459;28;20443;-72
2023/06/24 01:36:37;;;;;;;5.67;5.17;;;;;;;21.68;48.26;98300.75;5087341;28;20412;-71
2023/06/24 01:39:04;;;;;;;6.67;4.80;;;;;;;21.78;47.69;98297.75;5072069;28;20506;-72
2023/06/24 01:41:41;;;;;;;7.47;5.13;;;;;;;21.87;47.91;98291.19;5076683;28;20422;-69
2023/06/24 01:44:10;;;;;;;4.87;4.47;;;;;;;21.94;47.40;98297.38;5083442;28;20454;-70
2023/06/24 01:46:37;;;;;;;6.00;5.50;;;;;;;21.92;46.99;98294.13;5073255;28;20427;-69
2023/06/24 01:49:04;;;;;;;5.70;5.10;;;;;;;21.84;47.72;98302.25;5094287;28;20539;-70
2023/06/24 01:51:31;;;;;;;5.03;4.30;;;;;;;21.83;47.24;98297.13;5085612;28;20434;-69
2023/06/24 01:54:02;;;;;;;4.80;4.40;;;;;;;21.78;47.58;98300.41;5073477;28;20458;-71
2023/06/24 01:56:28;;;;;;;5.50;4.60;;;;;;;21.76;47.71;98295.25;5086670;28;20423;-70
2023/06/24 01:58:56;;;;;;;8.23;4.40;;;;;;;21.72;47.67;98290.50;5090531;28;20416;-68
2023/06/24 02:01:23;;;;;;;5.60;4.47;;;;;;;21.68;47.80;98287.41;5079390;28;20423;-70
2023/06/24 02:03:48;;;;;;;6.27;4.60;;;;;;;21.61;47.86;98286.59;5075028;28;20483;-69
2023/06/24 02:06:14;;;;;;;5.60;5.10;;;;;;;21.61;47.86;98287.38;5072585;28;20411;-69
2023/06/24 02:08:41;;;;;;;5.67;4.80;;;;;;;21.60;48.17;98291.06;5090609;28;20199;-69
2023/06/24 02:11:08;;;;;;;5.30;4.80;;;;;;;21.63;48.01;98280.00;5074324;28;20434;-70
2023/06/24 02:13:35;;;;;;;5.53;4.83;;;;;;;21.69;47.99;98289.06;5073519;28;20546;-71
2023/06/24 02:16:02;;;;;;;5.97;4.90;;;;;;;21.68;47.97;98286.59;5081350;28;20450;-70
2023/06/24 02:18:28;;;;;;;6.03;5.07;;;;;;;21.73;47.94;98284.16;5073548;28;20509;-72
2023/06/24 02:20:55;;;;;;;6.30;5.20;;;;;;;21.78;47.86;98281.72;5091696;28;20489;-69
2023/06/24 02:23:21;;;;;;;5.90;5.30;;;;;;;21.73;47.40;98279.66;5092295;28;20209;-70
2023/06/24 02:25:47;;;;;;;5.63;4.87;;;;;;;21.55;47.96;98276.66;5080919;28;20876;-70
2023/06/24 02:28:14;;;;;;;5.83;4.83;;;;;;;21.47;48.23;98277.63;5073127;28;20284;-70
2023/06/24 02:30:41;;;;;;;6.80;5.03;;;;;;;21.46;48.60;98273.31;5086312;28;20462;-70
2023/06/24 02:33:07;;;;;;;5.83;5.30;;;;;;;21.40;48.22;98274.13;5077364;28;20444;-71
2023/06/24 02:35:32;;;;;;;5.87;5.37;;;;;;;21.38;48.49;98271.63;5098519;28;20453;-68
2023/06/24 02:37:57;;;;;;;7.70;5.33;;;;;;;21.36;48.42;98276.31;5089984;28;20830;-70
2023/06/24 02:40:23;;;;;;;6.73;6.03;;;;;;;21.29;48.90;98268.31;5089005;28;20286;-70
2023/06/24 02:42:48;;;;;;;6.77;5.43;;;;;;;21.23;48.95;98263.75;5103768;28;20204;-70
2023/06/24 02:45:14;;;;;;;6.00;5.40;;;;;;;21.22;49.02;98271.97;5092752;28;20685;-70
2023/06/24 02:47:44;;;;;;;6.83;5.63;;;;;;;21.26;48.90;98268.69;5092726;28;20209;-70
2023/06/24 02:50:09;;;;;;;5.47;4.97;;;;;;;21.30;48.83;98277.94;5072060;28;20198;-70
2023/06/24 02:52:36;;;;;;;6.20;5.50;;;;;;;21.32;49.22;98277.75;5080692;28;20451;-69
2023/06/24 02:55:02;;;;;;;7.93;5.27;;;;;;;21.36;48.78;98276.31;5097948;28;20268;-71
2023/06/24 02:57:28;;;;;;;5.40;4.83;;;;;;;21.26;48.86;98276.69;5074805;28;20499;-72
2023/06/24 02:59:53;;;;;;;5.70;5.10;;;;;;;21.26;48.77;98271.38;5071422;28;20268;-70
2023/06/24 03:02:19;;;;;;;7.60;5.43;;;;;;;21.35;48.91;98273.88;5095764;28;20205;-69
2023/06/24 03:04:44;;;;;;;9.07;5.30;;;;;;;21.36;48.70;98273.66;5079602;28;20258;-71
2023/06/24 03:07:10;;;;;;;7.37;5.57;;;;;;;21.31;48.39;98287.59;5096521;28;20651;-70
2023/06/24 03:09:36;;;;;;;6.07;5.57;;;;;;;21.26;48.70;98283.84;5090749;28;20239;-70
2023/06/24 03:12:02;;;;;;;6.63;5.93;;;;;;;21.18;48.96;98279.50;5090098;28;20452;-71
2023/06/24 03:14:27;;;;;;;6.90;5.57;;;;;;;21.10;48.71;98275.16;5089973;28;20621;-69
2023/06/24 03:16:53;;;;;;;5.77;5.20;;;;;;;21.10;49.20;98282.31;5077566;28;20194;-72
2023/06/24 03:19:18;;;;;;;8.60;5.43;;;;;;;21.09;49.47;98280.66;5087617;28;20216;-69
2023/06/24 03:21:44;;;;;;;6.00;5.33;;;;;;;21.01;49.37;98287.81;5097115;28;20227;-73
2023/06/24 03:24:09;;;;;;;5.23;4.73;;;;;;;20.98;49.52;98288.19;5087632;28;20210;-71
2023/06/24 03:26:36;;;;;;;7.87;5.60;;;;;;;20.99;49.25;98292.50;5089146;28;20226;-71
2023/06/24 03:29:02;;;;;;;6.43;5.83;;;;;;;21.00;49.47;98283.50;5090876;28;20201;-70
2023/06/24 03:31:27;;;;;;;6.10;5.50;;;;;;;20.93;49.26;98289.78;5095022;28;20457;-71
2023/06/24 03:33:53;;;;;;;7.53;6.10;;;;;;;20.85;49.57;98296.06;5096114;28;20197;-70
2023/06/24 03:36:18;;;;;;;6.60;5.80;;;;;;;20.81;49.55;98297.44;5088484;28;20268;-69
2023/06/24 03:38:44;;;;;;;5.77;5.10;;;;;;;20.81;49.84;98303.63;5092503;28;20189;-70
2023/06/24 03:41:09;;;;;;;5.53;4.83;;;;;;;20.92;50.05;98306.78;5091688;28;20207;-70
2023/06/24 03:43:35;;;;;;;5.80;5.30;;;;;;;21.02;49.36;98310.78;5100589;28;20207;-69
2023/06/24 03:46:00;;;;;;;6.10;5.17;;;;;;;21.08;49.10;98308.34;5090807;28;20257;-71
2023/06/24 03:48:26;;;;;;;6.30;5.60;;;;;;;21.07;49.23;98314.69;5091785;28;20272;-70
2023/06/24 03:50:51;;;;;;;6.27;5.47;;;;;;;21.11;49.39;98323.94;5087378;28;20201;-71
2023/06/24 03:53:17;;;;;;;6.33;5.33;;;;;;;21.14;49.11;98323.56;5098968;28;20197;-70
2023/06/24 03:55:42;;;;;;;6.13;5.63;;;;;;;21.10;49.21;98316.97;5092363;28;20186;-70
2023/06/24 03:58:08;;;;;;;5.57;5.07;;;;;;;20.98;49.68;98322.81;5094381;28;20191;-69
2023/06/24 04:00:33;;;;;;;6.33;5.63;;;;;;;20.99;49.83;98327.13;5093274;28;20212;-69
2023/06/24 04:03:00;;;;;;;6.73;5.77;;;;;;;21.00;49.90;98328.78;5090461;28;20209;-71
2023/06/24 04:05:26;;;;;;;7.83;5.60;;;;;;;21.02;49.79;98332.09;5093887;28;20619;-71
2023/06/24 04:07:52;;;;;;;6.23;5.60;;;;;;;20.96;49.56;98332.84;5086814;28;20480;-70
2023/06/24 04:10:17;;;;;;;5.30;4.90;;;;;;;21.00;50.08;98334.13;5089501;28;20209;-71
2023/06/24 04:12:43;;;;;;;6.60;5.90;;;;;;;21.11;49.63;98323.94;5087894;28;20474;-70
2023/06/24 04:15:09;;;;;;;6.60;5.00;;;;;;;21.19;49.41;98329.13;5087782;28;20177;-69
2023/06/24 04:17:35;;;;;;;6.00;5.50;;;;;;;21.25;49.46;98340.84;5090974;28;20834;-69
2023/06/24 04:20:02;;;;;;;6.33;5.63;;;;;;;21.26;49.41;98343.34;5071931;28;20303;-71
2023/06/24 04:22:28;;;;;;;5.90;5.30;;;;;;;21.31;49.28;98348.09;5088031;28;20230;-70
2023/06/24 04:24:53;;;;;;;5.73;5.23;;;;;;;21.33;49.80;98341.53;5097951;28;20517;-69
2023/06/24 04:27:18;;;;;;;6.17;5.53;;;;;;;21.41;49.43;98345.09;5092932;28;20218;-70
2023/06/24 04:29:44;;;;;;;6.60;5.57;;;;;;;21.45;49.35;98341.84;5088039;28;20239;-70
2023/06/24 04:32:09;;;;;;;7.93;5.80;;;;;;;21.52;49.13;98347.22;5088374;28;20181;-70
2023/06/24 04:34:35;;;;;;;6.10;5.50;;;;;;;21.59;48.96;98347.25;5087707;28;20208;-71
2023/06/24 04:37:00;;;;;;;7.43;5.40;;;;;;;21.61;48.69;98351.41;5086520;28;20276;-70
2023/06/24 04:39:26;;;;;;;7.17;5.80;;;;;;;21.60;49.01;98352.41;5093347;28;20210;-71
2023/06/24 04:41:51;;;;;;;9.07;5.17;;;;;;;21.65;48.95;98351.81;5096217;28;20229;-70
2023/06/24 04:44:17;;;;;;;7.40;5.00;;;;;;;21.69;49.13;98350.44;5087597;28;20209;-71
2023/06/24 04:46:42;;;;;;;7.97;5.00;;;;;;;21.73;49.15;98353.53;5090296;28;20245;-71
2023/06/24 04:49:08;;;;;;;7.23;5.53;;;;;;;21.76;49.19;98348.59;5093345;28;20197;-71
2023/06/24 04:51:33;;;;;;;5.73;5.20;;;;;;;21.82;49.05;98355.00;5089027;28;20239;-70
2023/06/24 04:53:59;;;;;;;5.63;5.03;;;;;;;21.87;49.23;98352.56;5089066;28;20227;-70
2023/06/24 04:56:25;;;;;;;6.63;5.87;;;;;;;21.90;48.54;98356.69;5089101;28;20527;-71
2023/06/24 04:58:51;;;;;;;7.47;5.17;;;;;;;21.84;48.61;98355.63;5095124;28;20188;-70
2023/06/24 05:01:17;;;;;;;10.23;5.40;;;;;;;21.81;48.84;98361.34;5087567;28;20427;-71
2023/06/24 05:03:43;;;;;;;6.73;5.80;;;;;;;21.77;48.73;98360.94;5087646;28;20208;-71
2023/06/24 05:06:08;;;;;;;4.87;4.47;;;;;;;21.79;49.16;98358.09;5089301;28;20428;-72
2023/06/24 05:08:33;;;;;;;8.00;5.20;;;;;;;21.78;49.05;98356.44;5087084;28;20213;-71
2023/06/24 05:10:59;;;;;;;5.83;5.23;;;;;;;21.71;49.30;98358.22;5088971;28;20182;-71
2023/06/24 05:13:24;;;;;;;6.03;5.43;;;;;;;21.73;48.98;98365.03;5090212;28;20206;-72
2023/06/24 05:15:50;;;;;;;5.90;5.30;;;;;;;21.78;49.07;98367.09;5087093;28;20765;-70
2023/06/24 05:18:15;;;;;;;5.57;5.07;;;;;;;21.83;49.19;98364.66;5081617;28;20186;-71
2023/06/24 05:20:41;;;;;;;6.37;5.27;;;;;;;21.86;48.95;98368.78;5096178;28;20258;-71
2023/06/24 05:23:06;;;;;;;6.40;5.47;;;;;;;21.91;48.93;98367.19;5101296;28;20204;-71
2023/06/24 05:25:32;;;;;;;6.10;5.60;;;;;;;21.99;48.89;98370.69;5090955;28;20740;-70
2023/06/24 05:27:57;;;;;;;6.90;5.47;;;;;;;22.10;48.57;98364.78;5094599;28;20547;-71
2023/06/24 05:30:23;;;;;;;5.70;5.20;;;;;;;22.16;48.34;98373.84;5089327;28;20244;-70
2023/06/24 05:32:48;;;;;;;8.53;5.90;;;;;;;22.18;48.41;98361.94;5091353;28;20703;-70
2023/06/24 05:35:14;;;;;;;6.50;5.30;;;;;;;22.28;47.70;98366.91;5090875;28;20605;-71
2023/06/24 05:37:39;;;;;;;5.70;5.20;;;;;;;22.37;47.49;98370.25;5098441;28;20559;-72
2023/06/24 05:40:06;;;;;;;8.53;5.27;;;;;;;22.48;47.43;98368.88;5092707;28;20181;-71
2023/06/24 05:42:32;;;;;;;5.80;5.13;;;;;;;22.62;46.87;98365.19;5097825;28;20284;-71
2023/06/24 05:44:57;;;;;;;5.90;5.33;;;;;;;22.73;46.60;98363.78;5091713;28;20432;-71
2023/06/24 05:47:22;;;;;;;5.77;5.17;;;;;;;22.89;46.43;98367.09;5099815;28;20211;-71
2023/06/24 05:49:48;;;;;;;8.00;6.00;;;;;;;22.99;45.84;98357.66;5087004;28;20206;-71
2023/06/24 05:52:13;;;;;;;5.93;4.60;;;;;;;23.12;45.94;98356.84;5101725;28;20265;-70
2023/06/24 05:54:39;;;;;;;5.83;5.30;;;;;;;23.19;45.18;98356.03;5091464;28;20205;-71
2023/06/24 05:57:07;;;;;;;6.33;5.07;;;;;;;23.25;44.98;98361.38;5080903;28;20674;-70
2023/06/24 05:59:33;;;;;;;6.30;4.77;;;;;;;23.36;44.71;98362.63;5104188;28;20169;-70
2023/06/24 06:01:59;;;;;;;5.37;4.87;;;;;;;23.46;44.74;98355.00;5072629;28;20513;-70
2023/06/24 06:04:24;;;;;;;5.40;4.90;;;;;;;23.55;44.34;98360.16;5091071;28;20440;-70
2023/06/24 06:06:49;;;;;;;5.87;5.27;;;;;;;23.62;43.89;98360.94;5095414;28;20233;-71
2023/06/24 06:09:15;;;;;;;6.90;4.97;;;;;;;23.69;43.60;98361.72;5093144;28;20209;-71
2023/06/24 06:11:41;;;;;;;11.27;5.30;;;;;;;23.80;43.78;98367.50;5092806;28;20240;-71
2023/06/24 06:14:07;;;;;;;10.57;4.33;;;;;;;23.90;43.68;98378.59;5088310;28;20209;-71
2023/06/24 06:16:32;;;;;;;9.10;4.73;;;;;;;23.87;42.73;98368.28;5088585;28;20462;-70
2023/06/24 06:18:58;;;;;;;5.77;4.70;;;;;;;23.98;42.34;98364.19;5090454;28;20212;-70
2023/06/24 06:21:24;;;;;;;5.60;4.67;;;;;;;23.85;42.92;98362.31;5090646;28;20254;-70
2023/06/24 06:23:49;;;;;;;4.97;4.47;;;;;;;23.98;42.29;98356.97;5099026;28;20209;-70
2023/06/24 06:26:15;;;;;;;4.60;4.20;;;;;;;24.12;42.07;98360.44;5086472;28;20185;-70
2023/06/24 06:28:40;;;;;;;4.87;4.43;;;;;;;24.22;41.94;98350.09;5096211;28;20246;-70
2023/06/24 06:31:06;;;;;;;5.20;4.47;;;;;;;24.44;42.09;98359.66;5090044;28;20189;-70
2023/06/24 06:33:31;;;;;;;4.90;4.40;;;;;;;24.57;41.69;98354.25;5071645;28;20190;-69
2023/06/24 06:35:56;;;;;;;6.60;4.17;;;;;;;24.72;41.01;98348.59;5092294;28;20327;-71
2023/06/24 06:38:22;;;;;;;8.57;3.90;;;;;;;24.78;39.60;98358.44;5099222;28;20184;-69
2023/06/24 06:40:47;;;;;;;5.13;3.80;;;;;;;24.86;39.07;98357.38;5095428;28;20188;-70
2023/06/24 06:43:13;;;;;;;6.07;3.40;;;;;;;24.91;38.42;98345.97;5098469;28;20615;-70
2023/06/24 06:45:38;;;;;;;6.47;3.57;;;;;;;25.03;38.69;98348.81;5090229;28;20545;-69
2023/06/24 06:48:07;;;;;;;6.93;3.60;;;;;;;25.10;38.29;98347.72;5097279;28;20675;-70
2023/06/24 06:50:33;;;;;;;5.57;3.60;;;;;;;25.13;37.82;98349.13;5089578;28;20212;-69
2023/06/24 06:52:58;;;;;;;6.83;4.10;;;;;;;25.25;38.22;98355.41;5090753;28;20438;-69
2023/06/24 06:55:24;;;;;;;4.00;3.70;;;;;;;25.30;37.11;98347.53;5090549;28;20972;-69
2023/06/24 06:57:49;;;;;;;4.33;3.67;;;;;;;25.33;36.81;98353.50;5090182;28;20663;-69
2023/06/24 07:00:15;;;;;;;4.43;3.80;;;;;;;25.45;37.30;98344.53;5097689;28;20264;-70
2023/06/24 07:02:40;;;;;;;4.10;3.80;;;;;;;25.63;36.84;98345.63;5091565;28;20205;-70
2023/06/24 07:05:06;;;;;;;4.63;3.83;;;;;;;25.46;36.69;98348.03;5097539;28;20200;-70
2023/06/24 07:07:32;;;;;;;8.37;3.63;;;;;;;25.69;36.66;98343.91;5097583;28;20226;-70
2023/06/24 07:09:58;;;;;;;3.57;3.27;;;;;;;25.84;36.45;98348.88;5093024;28;20216;-70
2023/06/24 07:12:23;;;;;;;5.60;3.70;;;;;;;25.98;36.28;98339.66;5099147;28;21133;-69
2023/06/24 07:14:50;;;;;;;5.57;3.47;;;;;;;26.08;36.05;98347.19;5093041;28;20230;-70
2023/06/24 07:17:15;;;;;;;3.83;3.40;;;;;;;26.22;36.62;98345.97;5091117;28;20686;-69
2023/06/24 07:19:41;;;;;;;4.00;3.57;;;;;;;26.36;35.92;98357.38;5091952;28;20507;-70
2023/06/24 07:22:06;;;;;;;3.57;3.27;;;;;;;26.48;36.14;98343.97;5088142;28;20701;-71
2023/06/24 07:24:32;;;;;;;3.37;3.07;;;;;;;26.61;35.14;98350.22;5090177;28;20276;-71
2023/06/24 07:26:57;;;;;;;6.70;3.57;;;;;;;26.53;34.79;98346.81;5097977;28;20199;-70
2023/06/24 07:29:23;;;;;;;4.10;3.70;;;;;;;26.68;34.67;98350.94;5093887;28;20200;-70
2023/06/24 07:31:48;;;;;;;4.07;3.50;;;;;;;26.73;34.59;98350.25;5089174;28;20189;-70
2023/06/24 07:34:13;;;;;;;4.70;3.50;;;;;;;26.81;35.32;98342.72;5092946;28;20203;-71
2023/06/24 07:36:39;;;;;;;3.47;3.17;;;;;;;26.98;34.58;98336.66;5097833;28;20201;-70
2023/06/24 07:39:06;;;;;;;4.33;3.37;;;;;;;27.05;34.31;98337.38;5093689;28;20166;-71
2023/06/24 07:41:32;;;;;;;4.03;3.43;;;;;;;27.12;33.68;98342.66;5093407;28;20426;-70
2023/06/24 07:43:57;;;;;;;3.53;3.23;;;;;;;27.20;33.18;98339.59;5101210;28;20258;-70
2023/06/24 07:46:23;;;;;;;6.63;3.50;;;;;;;27.31;33.48;98346.06;5097251;28;20170;-70
2023/06/24 07:48:48;;;;;;;4.07;3.60;;;;;;;27.41;33.96;98346.28;5072829;28;20269;-72
2023/06/24 07:51:14;;;;;;;3.50;3.30;;;;;;;27.53;33.56;98340.94;5096889;28;20193;-71
2023/06/24 07:53:39;;;;;;;4.30;3.90;;;;;;;27.47;33.08;98339.19;5097566;28;20206;-71
2023/06/24 07:56:05;;;;;;;3.60;3.30;;;;;;;27.56;33.23;98343.16;5086785;28;20268;-71
2023/06/24 07:58:30;;;;;;;3.57;3.27;;;;;;;27.77;33.87;98337.38;5097095;28;20185;-72
2023/06/24 08:00:56;;;;;;;3.87;3.50;;;;;;;27.86;33.43;98344.03;5095421;28;20713;-70
2023/06/24 08:03:22;;;;;;;5.13;3.83;;;;;;;27.69;32.94;98334.00;5087199;28;20744;-71
2023/06/24 08:05:49;;;;;;;4.47;3.37;;;;;;;27.85;33.49;98339.72;5089541;28;20657;-70
2023/06/24 08:08:15;;;;;;;4.23;3.53;;;;;;;28.04;33.26;98338.50;5092390;28;20439;-71
2023/06/24 08:10:40;;;;;;;3.60;3.30;;;;;;;28.24;33.13;98339.97;5086660;28;20455;-71
2023/06/24 08:13:05;;;;;;;3.30;3.03;;;;;;;28.39;32.54;98328.69;5088138;28;20197;-71
2023/06/24 08:15:31;;;;;;;5.03;3.40;;;;;;;28.43;32.14;98329.00;5085641;28;20714;-70
2023/06/24 08:17:56;;;;;;;6.03;3.67;;;;;;;28.45;32.00;98333.09;5086125;28;20186;-69
2023/06/24 08:20:23;;;;;;;3.70;3.40;;;;;;;28.54;32.44;98330.03;5085079;28;20331;-71
2023/06/24 08:22:48;;;;;;;4.37;3.97;;;;;;;28.59;31.76;98335.50;5072442;28;20212;-70
2023/06/24 08:25:14;;;;;;;4.03;3.63;;;;;;;28.72;32.03;98326.28;5086742;28;21108;-72
2023/06/24 08:31:22;;;;;;;6.00;3.13;;;;;;;28.75;31.45;98320.44;5081441;28;20206;-70
2023/06/24 08:33:52;;;;;;;6.83;3.70;;;;;;;28.85;31.48;98319.78;5084874;28;20443;-70
2023/06/24 08:36:17;;;;;;;3.90;3.50;;;;;;;28.63;31.28;98318.59;5090119;28;20434;-70
2023/06/24 08:38:43;;;;;;;3.80;3.50;;;;;;;28.64;31.04;98325.63;5073003;28;20439;-69
2023/06/24 08:41:08;;;;;;;5.23;4.03;;;;;;;28.49;31.01;98320.78;5089723;28;20260;-68
2023/06/24 08:43:34;;;;;;;5.20;3.83;;;;;;;28.56;31.47;98317.94;5070383;28;20254;-70
2023/06/24 08:45:59;;;;;;;5.70;3.50;;;;;;;28.73;31.12;98312.59;5088373;28;20641;-70
2023/06/24 08:48:42;;;;;;;4.60;3.80;;;;;;;28.78;30.59;98310.00;5074994;28;20185;-70
2023/06/24 08:51:09;;;;;;;3.80;3.50;;;;;;;28.88;31.22;98309.31;5087394;28;20189;-71
2023/06/24 08:53:36;;;;;;;5.53;3.37;;;;;;;28.77;31.28;98307.50;5087969;28;20495;-69
2023/06/24 08:56:01;;;;;;;3.90;3.60;;;;;;;28.85;30.97;98314.38;5089492;28;20422;-70
2023/06/24 08:58:27;;;;;;;5.67;3.60;;;;;;;28.79;31.26;98313.50;5093054;28;20502;-69
2023/06/24 09:00:52;;;;;;;4.47;3.67;;;;;;;29.02;30.89;98309.00;5094989;28;20177;-69
2023/06/24 09:03:18;;;;;;;4.00;3.50;;;;;;;29.25;30.49;98308.81;5096273;28;20201;-70
2023/06/24 09:05:44;;;;;;;3.50;2.97;;;;;;;29.50;29.97;98312.16;5100212;28;20189;-70
2023/06/24 09:08:10;;;;;;;4.83;3.30;;;;;;;29.76;29.47;98318.69;5101608;28;20713;-71
2023/06/24 09:10:37;;;;;;;3.23;2.93;;;;;;;29.99;29.26;98316.88;5093393;28;20221;-70
2023/06/24 09:13:05;;;;;;;6.53;3.53;;;;;;;30.03;27.95;98312.56;5101055;27;20208;-70
2023/06/24 09:15:35;;;;;;;4.10;3.50;;;;;;;29.99;28.48;98312.25;5099546;28;20453;-70
2023/06/24 09:18:00;;;;;;;3.97;3.20;;;;;;;30.08;28.09;98309.94;5098846;28;20424;-69
2023/06/24 09:20:27;;;;;;;3.50;3.17;;;;;;;30.17;28.52;98302.19;5092227;28;20434;-70
2023/06/24 09:22:58;;;;;;;3.13;2.93;;;;;;;30.44;28.58;98312.19;5098385;28;20208;-70
2023/06/24 09:25:23;;;;;;;4.93;3.60;;;;;;;30.43;26.94;98294.34;5094154;28;20438;-70
2023/06/24 09:27:57;;;;;;;5.00;3.47;;;;;;;30.50;27.40;98298.44;5094884;28;20514;-70
2023/06/24 09:30:23;;;;;;;4.77;3.50;;;;;;;30.66;27.34;98290.50;5091000;28;20217;-70
2023/06/24 09:32:49;;;;;;;3.23;2.90;;;;;;;30.71;27.46;98295.97;5098920;28;20813;-70
2023/06/24 09:35:18;;;;;;;2.80;2.60;;;;;;;30.89;26.84;98292.06;5091532;28;20205;-70
2023/06/24 09:37:50;;;;;;;2.80;2.60;;;;;;;30.98;26.65;98292.41;5080603;28;20858;-70
2023/06/24 09:40:17;;;;;;;3.47;3.17;;;;;;;30.89;26.81;98283.13;5103500;28;20527;-70
2023/06/24 09:42:58;;;;;;;4.27;3.37;;;;;;;30.58;26.71;98280.19;5094785;28;20447;-70
2023/06/24 09:45:27;;;;;;;3.40;3.20;;;;;;;30.61;26.97;98285.09;5088150;28;20182;-70
2023/06/24 09:47:54;;;;;;;5.33;3.60;;;;;;;30.82;26.87;98274.41;5076356;28;20492;-70
2023/06/24 09:50:20;;;;;;;3.87;3.20;;;;;;;31.04;27.14;98264.28;5093962;28;20463;-70
2023/06/24 09:52:46;;;;;;;3.60;3.13;;;;;;;31.25;27.09;98269.88;5094529;28;20451;-71
2023/06/24 09:55:14;;;;;;;3.27;2.97;;;;;;;31.24;26.41;98266.34;5076281;28;20419;-71
2023/06/24 09:57:42;;;;;;;3.30;3.00;;;;;;;30.99;25.61;98264.28;5098828;28;20177;-70
2023/06/24 10:00:09;;;;;;;3.40;3.10;;;;;;;30.77;26.29;98270.59;5076776;28;20422;-69
2023/06/24 10:02:36;;;;;;;3.30;3.00;;;;;;;30.65;26.67;98259.13;5098441;28;21026;-69
2023/06/24 10:05:01;;;;;;;3.90;3.50;;;;;;;30.77;26.29;98265.19;5074692;28;20713;-69
2023/06/24 10:07:27;;;;;;;3.87;3.27;;;;;;;30.95;26.06;98260.44;5086516;28;20440;-71
2023/06/24 10:09:53;;;;;;;3.40;2.70;;;;;;;31.15;26.27;98251.69;5072627;28;20198;-70
2023/06/24 10:12:18;;;;;;;3.43;3.10;;;;;;;31.35;26.04;98250.97;5072702;28;20185;-70
2023/06/24 10:14:44;;;;;;;3.30;3.00;;;;;;;31.57;26.04;98244.56;5077912;28;20203;-71
2023/06/24 10:17:11;;;;;;;3.40;2.60;;;;;;;31.71;25.51;98248.44;5054572;28;20181;-70
2023/06/24 10:19:40;;;;;;;2.77;2.57;;;;;;;31.71;24.81;98245.75;5084807;28;20193;-70
2023/06/24 10:22:10;;;;;;;4.10;2.97;;;;;;;31.91;24.56;98237.94;5095527;28;20512;-70
2023/06/24 10:24:39;;;;;;;2.97;2.70;;;;;;;32.04;23.87;98250.16;5092719;28;20426;-71
2023/06/24 10:27:06;;;;;;;5.10;2.70;;;;;;;31.92;24.27;98240.38;5084257;28;20816;-70
2023/06/24 10:29:33;;;;;;;2.50;2.30;;;;;;;32.06;23.46;98245.28;5096187;28;20491;-69
2023/06/24 10:32:05;;;;;;;2.83;2.63;;;;;;;32.22;23.26;98236.09;5092225;28;20424;-70
2023/06/24 10:34:37;;;;;;;4.23;2.90;;;;;;;32.34;22.64;98237.75;5089769;28;20440;-70
2023/06/24 10:37:12;;;;;;;7.73;2.67;;;;;;;32.49;22.44;98229.63;5094410;28;20428;-70
2023/06/24 10:39:54;;;;;;;2.97;2.50;;;;;;;32.57;22.08;98234.50;5091568;28;20419;-70
2023/06/24 10:42:25;;;;;;;3.23;2.47;;;;;;;32.63;21.90;98227.19;5091648;28;20476;-70
2023/06/24 10:44:51;;;;;;;5.93;2.63;;;;;;;32.64;22.27;98226.09;5088769;28;20424;-70
2023/06/24 10:47:17;;;;;;;3.50;2.40;;;;;;;32.40;21.29;98225.81;5089886;28;20419;-70
2023/06/24 10:49:43;;;;;;;2.37;2.23;;;;;;;32.50;20.93;98225.00;5090617;28;20451;-70
2023/06/24 10:52:12;;;;;;;3.10;2.80;;;;;;;32.73;21.80;98218.22;5097671;28;20225;-71
2023/06/24 10:54:38;;;;;;;4.67;2.87;;;;;;;32.90;21.90;98220.66;5085020;28;20194;-70
2023/06/24 10:57:04;;;;;;;3.70;2.50;;;;;;;33.05;22.41;98207.06;5089809;28;21003;-70
2023/06/24 10:59:43;;;;;;;3.27;2.97;;;;;;;33.07;21.13;98202.19;5088387;28;20455;-69
2023/06/24 11:02:11;;;;;;;4.37;2.80;;;;;;;33.20;21.31;98197.25;5071769;28;20434;-70
2023/06/24 11:04:47;;;;;;;2.83;2.63;;;;;;;33.33;22.11;98193.13;5084531;28;20438;-70
2023/06/24 11:07:12;;;;;;;3.43;3.00;;;;;;;33.36;21.82;98203.47;5091151;28;20423;-69
2023/06/24 11:09:39;;;;;;;4.00;2.80;;;;;;;33.27;21.96;98200.47;5099760;28;20454;-70
2023/06/24 11:12:05;;;;;;;2.97;2.77;;;;;;;33.17;21.87;98200.53;5087675;28;20190;-69
2023/06/24 11:14:34;;;;;;;3.50;3.20;;;;;;;33.12;22.24;98193.22;5096502;28;20989;-68
2023/06/24 11:17:03;;;;;;;2.73;2.47;;;;;;;33.24;22.10;98192.88;5070537;28;20452;-69
2023/06/24 11:19:32;;;;;;;6.83;3.03;;;;;;;33.14;21.76;98190.22;5089076;28;20515;-69
2023/06/24 11:22:01;;;;;;;5.27;3.00;;;;;;;32.87;22.14;98186.75;5089207;28;20521;-69
2023/06/24 11:24:28;;;;;;;3.97;2.67;;;;;;;32.49;22.47;98180.81;5089114;28;20468;-69
2023/06/24 11:26:53;;;;;;;2.93;2.57;;;;;;;32.27;23.20;98173.75;5092834;28;20446;-68
2023/06/24 11:29:18;;;;;;;4.90;3.60;;;;;;;32.38;22.65;98179.19;5088883;28;20543;-68
2023/06/24 11:31:47;;;;;;;3.70;3.40;;;;;;;32.59;23.09;98169.13;5089561;28;20676;-68
2023/06/24 11:34:13;;;;;;;4.57;4.00;;;;;;;32.84;22.80;98164.75;5086050;28;20296;-69
2023/06/24 11:36:38;;;;;;;3.30;3.00;;;;;;;33.01;22.10;98159.84;5095237;28;20992;-68